world map with SBK marked

SBK - Airport

This information may not be accurate or current and is not valid for navigation or flight planning. No warranty of fitness for any purpose is made or implied.

flag of Bretagneflag of France

Donate via PayPal

Additional information is available on the NEW Great Circle Mapper

Location
City:  St-Brieuc, Bretagne, France
Name:Armor (Tremuson)
ICAO / IATA:LFRT / SBK

Details
Type:Airport (Aerodrome, Airfield)
Use:Public/Civil
Latitude:48°32'15"N (48.537492)
Longitude:2°51'24"W (-2.856541)
Elevation:452 ft (138 m)
Runways:1
Longest:7218 × 148 ft (2200 × 45 m)

Time
Timezone:UTC+1 (DST+4)
Local Time:

Weather
METAR:LFRT  262100Z AUTO 18002KT 6000 NSC 14/13 Q1021

Related Locations
Nearby:
Farthest:NZDC: 12075 mi / 19433 km
Dunedin [City Heliport], OTA, NZ

Find:

   beyond  
but within

Other Information
Maps:
Links:
Sources:

  


 


Great Circle Mapper   Great Circle Mapper
Great Circle Mapper FAQ   Great Circle Mapper FAQ
  Karl's Home Page
KLSē   KLSē Home
   GC on Facebook
Airlines of the World   Airlines of the World
Donate via PayPal


Copyright © 2004-2017, Karl L. Swartz. All rights reserved.
All trademarks mentioned herein belong to their respective owners.

Please see credits for attribution and copyright information.

Karl Swartz <karl@kls2.com>
  Powered by FreeBSD
Valid HTML 4.01!
Labeled with ICRA
hCard Microformat
Geo Microformat